sensor_id;sensor_type;location;lat;lon;timestamp;temperature;humidity
55329;DHT22;41205;44.264;19.884;2023-05-10T00:02:07;307.70;2304.00
55329;DHT22;41205;44.264;19.884;2023-05-10T00:04:32;307.70;2304.00
55329;DHT22;41205;44.264;19.884;2023-05-10T00:06:58;307.70;2304.00
55329;DHT22;41205;44.264;19.884;2023-05-10T00:09:24;307.80;2304.00
55329;DHT22;41205;44.264;19.884;2023-05-10T00:11:50;307.80;2304.00
55329;DHT22;41205;44.264;19.884;2023-05-10T00:14:16;307.80;2304.00
55329;DHT22;41205;44.264;19.884;2023-05-10T00:16:41;307.70;2304.00
55329;DHT22;41205;44.264;19.884;2023-05-10T00:19:07;307.70;2304.00
55329;DHT22;41205;44.264;19.884;2023-05-10T00:21:33;307.70;2304.00
55329;DHT22;41205;44.264;19.884;2023-05-10T00:23:59;307.80;2304.00
55329;DHT22;41205;44.264;19.884;2023-05-10T00:26:25;307.80;2304.00
55329;DHT22;41205;44.264;19.884;2023-05-10T00:28:51;307.70;2304.00
55329;DHT22;41205;44.264;19.884;2023-05-10T00:31:16;307.70;2304.00
55329;DHT22;41205;44.264;19.884;2023-05-10T00:33:42;307.70;2304.00
55329;DHT22;41205;44.264;19.884;2023-05-10T00:36:08;307.60;2304.00
55329;DHT22;41205;44.264;19.884;2023-05-10T00:38:34;307.40;2304.00
55329;DHT22;41205;44.264;19.884;2023-05-10T00:41:00;307.50;2304.00
55329;DHT22;41205;44.264;19.884;2023-05-10T00:43:25;307.50;2304.00
55329;DHT22;41205;44.264;19.884;2023-05-10T00:45:52;307.50;2304.00
55329;DHT22;41205;44.264;19.884;2023-05-10T00:48:18;307.50;2304.00
55329;DHT22;41205;44.264;19.884;2023-05-10T00:50:44;307.50;2304.00
55329;DHT22;41205;44.264;19.884;2023-05-10T00:53:10;307.40;2304.00
55329;DHT22;41205;44.264;19.884;2023-05-10T00:55:36;307.50;2304.00
55329;DHT22;41205;44.264;19.884;2023-05-10T00:58:02;307.50;2304.00
55329;DHT22;41205;44.264;19.884;2023-05-10T01:00:28;307.40;2304.00
55329;DHT22;41205;44.264;19.884;2023-05-10T01:02:55;307.40;2304.00
55329;DHT22;41205;44.264;19.884;2023-05-10T01:05:21;307.30;2304.00
55329;DHT22;41205;44.264;19.884;2023-05-10T01:07:47;307.40;2304.00
55329;DHT22;41205;44.264;19.884;2023-05-10T01:10:13;307.40;2304.00
55329;DHT22;41205;44.264;19.884;2023-05-10T01:12:41;307.30;2304.00
55329;DHT22;41205;44.264;19.884;2023-05-10T01:15:08;307.40;2304.00
55329;DHT22;41205;44.264;19.884;2023-05-10T01:17:36;307.30;2304.00
55329;DHT22;41205;44.264;19.884;2023-05-10T01:20:03;307.30;2304.00
55329;DHT22;41205;44.264;19.884;2023-05-10T01:31:30;307.40;2304.00
55329;DHT22;41205;44.264;19.884;2023-05-10T01:34:23;307.30;2304.00
55329;DHT22;41205;44.264;19.884;2023-05-10T01:37:12;307.30;2304.00
55329;DHT22;41205;44.264;19.884;2023-05-10T01:39:45;307.30;2304.00
55329;DHT22;41205;44.264;19.884;2023-05-10T01:42:17;307.30;2304.00
55329;DHT22;41205;44.264;19.884;2023-05-10T01:45:02;307.30;2304.00
55329;DHT22;41205;44.264;19.884;2023-05-10T01:47:47;307.30;2304.00
55329;DHT22;41205;44.264;19.884;2023-05-10T01:50:24;307.20;2304.00
55329;DHT22;41205;44.264;19.884;2023-05-10T01:52:55;307.20;2304.00
55329;DHT22;41205;44.264;19.884;2023-05-10T01:55:25;307.30;2304.00
55329;DHT22;41205;44.264;19.884;2023-05-10T01:58:04;307.30;2304.00
55329;DHT22;41205;44.264;19.884;2023-05-10T02:00:32;307.30;2304.00
55329;DHT22;41205;44.264;19.884;2023-05-10T02:03:00;307.30;2304.00
55329;DHT22;41205;44.264;19.884;2023-05-10T02:05:28;307.40;2304.00
55329;DHT22;41205;44.264;19.884;2023-05-10T02:07:56;307.40;2304.00
55329;DHT22;41205;44.264;19.884;2023-05-10T02:10:23;307.40;2304.00
55329;DHT22;41205;44.264;19.884;2023-05-10T02:12:50;307.40;2304.00
55329;DHT22;41205;44.264;19.884;2023-05-10T02:15:20;307.40;2304.00
55329;DHT22;41205;44.264;19.884;2023-05-10T02:17:47;307.30;2304.00
55329;DHT22;41205;44.264;19.884;2023-05-10T02:20:14;307.30;2304.00
55329;DHT22;41205;44.264;19.884;2023-05-10T02:22:41;307.30;2304.00
55329;DHT22;41205;44.264;19.884;2023-05-10T02:25:08;307.30;2304.00
55329;DHT22;41205;44.264;19.884;2023-05-10T02:27:36;307.30;2304.00
55329;DHT22;41205;44.264;19.884;2023-05-10T02:30:03;307.20;2304.00
55329;DHT22;41205;44.264;19.884;2023-05-10T02:32:30;282.50;2278.40
55329;DHT22;41205;44.264;19.884;2023-05-10T02:34:57;282.50;2278.40
55329;DHT22;41205;44.264;19.884;2023-05-10T02:37:25;307.20;2304.00
55329;DHT22;41205;44.264;19.884;2023-05-10T02:39:54;282.40;2278.40
55329;DHT22;41205;44.264;19.884;2023-05-10T02:42:24;282.30;2278.40
55329;DHT22;41205;44.264;19.884;2023-05-10T02:44:52;282.30;2278.40
55329;DHT22;41205;44.264;19.884;2023-05-10T02:47:18;282.40;2278.40
55329;DHT22;41205;44.264;19.884;2023-05-10T02:49:45;282.20;2278.40
55329;DHT22;41205;44.264;19.884;2023-05-10T02:52:12;282.10;2278.40
55329;DHT22;41205;44.264;19.884;2023-05-10T02:54:45;282.10;2278.40
55329;DHT22;41205;44.264;19.884;2023-05-10T02:57:15;282.00;2278.40
55329;DHT22;41205;44.264;19.884;2023-05-10T02:59:43;282.10;2278.40
55329;DHT22;41205;44.264;19.884;2023-05-10T03:02:11;282.10;2278.40
55329;DHT22;41205;44.264;19.884;2023-05-10T03:04:37;282.10;2278.40
55329;DHT22;41205;44.264;19.884;2023-05-10T03:07:03;282.10;2278.40
55329;DHT22;41205;44.264;19.884;2023-05-10T03:09:30;282.10;2278.40
55329;DHT22;41205;44.264;19.884;2023-05-10T03:12:00;282.10;2278.40
55329;DHT22;41205;44.264;19.884;2023-05-10T03:14:51;282.10;2278.40
55329;DHT22;41205;44.264;19.884;2023-05-10T03:17:52;282.10;2278.40
55329;DHT22;41205;44.264;19.884;2023-05-10T03:20:29;282.00;2278.40
55329;DHT22;41205;44.264;19.884;2023-05-10T03:23:05;282.10;2278.40
55329;DHT22;41205;44.264;19.884;2023-05-10T03:25:33;282.10;2278.40
55329;DHT22;41205;44.264;19.884;2023-05-10T03:28:01;282.10;2278.40
55329;DHT22;41205;44.264;19.884;2023-05-10T03:30:29;282.00;2278.40
55329;DHT22;41205;44.264;19.884;2023-05-10T03:32:55;282.10;2278.40
55329;DHT22;41205;44.264;19.884;2023-05-10T03:35:22;281.90;2278.40
55329;DHT22;41205;44.264;19.884;2023-05-10T03:37:48;282.10;2278.40
55329;DHT22;41205;44.264;19.884;2023-05-10T03:40:14;282.00;2278.40
55329;DHT22;41205;44.264;19.884;2023-05-10T03:42:40;282.10;2278.40
55329;DHT22;41205;44.264;19.884;2023-05-10T03:45:07;282.20;2278.40
55329;DHT22;41205;44.264;19.884;2023-05-10T03:47:33;282.20;2278.40
55329;DHT22;41205;44.264;19.884;2023-05-10T03:49:58;282.40;2278.40
55329;DHT22;41205;44.264;19.884;2023-05-10T03:52:24;282.50;2278.40
55329;DHT22;41205;44.264;19.884;2023-05-10T03:54:49;282.50;2278.40
55329;DHT22;41205;44.264;19.884;2023-05-10T03:57:15;282.50;2278.40
55329;DHT22;41205;44.264;19.884;2023-05-10T03:59:41;282.50;2278.40
55329;DHT22;41205;44.264;19.884;2023-05-10T04:02:06;307.20;2304.00
55329;DHT22;41205;44.264;19.884;2023-05-10T04:04:32;307.20;2304.00
55329;DHT22;41205;44.264;19.884;2023-05-10T04:06:58;307.30;2304.00
55329;DHT22;41205;44.264;19.884;2023-05-10T04:09:23;307.30;2304.00
55329;DHT22;41205;44.264;19.884;2023-05-10T04:11:49;307.40;2304.00
55329;DHT22;41205;44.264;19.884;2023-05-10T04:14:15;307.60;2304.00
55329;DHT22;41205;44.264;19.884;2023-05-10T04:16:41;307.50;2304.00
55329;DHT22;41205;44.264;19.884;2023-05-10T04:19:07;307.40;2304.00
55329;DHT22;41205;44.264;19.884;2023-05-10T04:21:33;307.40;2304.00
55329;DHT22;41205;44.264;19.884;2023-05-10T04:23:58;307.50;2304.00
55329;DHT22;41205;44.264;19.884;2023-05-10T04:26:24;307.50;2304.00
55329;DHT22;41205;44.264;19.884;2023-05-10T04:28:50;307.50;2304.00
55329;DHT22;41205;44.264;19.884;2023-05-10T04:31:16;307.50;2304.00
55329;DHT22;41205;44.264;19.884;2023-05-10T04:33:42;307.70;2304.00
55329;DHT22;41205;44.264;19.884;2023-05-10T04:36:08;307.70;2304.00
55329;DHT22;41205;44.264;19.884;2023-05-10T04:38:34;307.80;2304.00
55329;DHT22;41205;44.264;19.884;2023-05-10T04:41:08;308.10;2304.00
55329;DHT22;41205;44.264;19.884;2023-05-10T04:43:34;308.10;2304.00
55329;DHT22;41205;44.264;19.884;2023-05-10T04:46:00;308.10;2304.00
55329;DHT22;41205;44.264;19.884;2023-05-10T04:48:26;308.10;2304.00
55329;DHT22;41205;44.264;19.884;2023-05-10T04:50:52;332.90;2329.60
55329;DHT22;41205;44.264;19.884;2023-05-10T04:53:18;409.90;2355.20
55329;DHT22;41205;44.264;19.884;2023-05-10T04:55:43;512.70;2099.20
55329;DHT22;41205;44.264;19.884;2023-05-10T04:58:09;563.40;1945.60
55329;DHT22;41205;44.264;19.884;2023-05-10T05:00:35;589.70;1766.40
55329;DHT22;41205;44.264;19.884;2023-05-10T05:03:00;640.10;1689.60
55329;DHT22;41205;44.264;19.884;2023-05-10T05:05:26;666.00;1612.80
55329;DHT22;41205;44.264;19.884;2023-05-10T05:07:52;717.00;1510.40
55329;DHT22;41205;44.264;19.884;2023-05-10T05:10:18;717.60;1459.20
55329;DHT22;41205;44.264;19.884;2023-05-10T05:12:43;717.10;1433.60
55329;DHT22;41205;44.264;19.884;2023-05-10T05:15:09;742.50;1459.20
55329;DHT22;41205;44.264;19.884;2023-05-10T05:17:36;742.90;1382.40
55329;DHT22;41205;44.264;19.884;2023-05-10T05:20:02;768.90;1331.20
55329;DHT22;41205;44.264;19.884;2023-05-10T05:22:28;768.10;1356.80
55329;DHT22;41205;44.264;19.884;2023-05-10T05:24:54;743.10;1356.80
55329;DHT22;41205;44.264;19.884;2023-05-10T05:27:20;794.00;1331.20
55329;DHT22;41205;44.264;19.884;2023-05-10T05:29:53;794.30;1305.60
55329;DHT22;41205;44.264;19.884;2023-05-10T05:32:19;819.60;1254.40
55329;DHT22;41205;44.264;19.884;2023-05-10T05:34:45;845.00;1254.40
55329;DHT22;41205;44.264;19.884;2023-05-10T05:37:19;845.20;1254.40
55329;DHT22;41205;44.264;19.884;2023-05-10T05:39:45;871.10;1152.00
55329;DHT22;41205;44.264;19.884;2023-05-10T05:42:12;870.80;1177.60
55329;DHT22;41205;44.264;19.884;2023-05-10T05:44:38;870.50;1177.60
55329;DHT22;41205;44.264;19.884;2023-05-10T05:47:04;845.50;1177.60
55329;DHT22;41205;44.264;19.884;2023-05-10T05:49:30;870.90;1152.00
55329;DHT22;41205;44.264;19.884;2023-05-10T05:51:59;871.00;1152.00
55329;DHT22;41205;44.264;19.884;2023-05-10T05:54:29;845.40;1203.20
55329;DHT22;41205;44.264;19.884;2023-05-10T05:56:58;845.60;1177.60
55329;DHT22;41205;44.264;19.884;2023-05-10T05:59:25;844.90;1228.80
55329;DHT22;41205;44.264;19.884;2023-05-10T06:01:50;820.10;1228.80
55329;DHT22;41205;44.264;19.884;2023-05-10T06:04:16;896.90;1100.80
55329;DHT22;41205;44.264;19.884;2023-05-10T06:09:08;947.80;1049.60
55329;DHT22;41205;44.264;19.884;2023-05-10T06:11:34;922.00;1100.80
55329;DHT22;41205;44.264;19.884;2023-05-10T06:14:01;922.50;1075.20
55329;DHT22;41205;44.264;19.884;2023-05-10T06:16:27;896.60;1100.80
55329;DHT22;41205;44.264;19.884;2023-05-10T06:21:19;820.10;1203.20
55329;DHT22;41205;44.264;19.884;2023-05-10T06:23:45;691.70;1408.00
55329;DHT22;41205;44.264;19.884;2023-05-10T06:26:11;716.80;1382.40
55329;DHT22;41205;44.264;19.884;2023-05-10T06:28:36;717.10;1382.40
55329;DHT22;41205;44.264;19.884;2023-05-10T06:31:05;691.40;1408.00
55329;DHT22;41205;44.264;19.884;2023-05-10T06:33:32;665.70;1459.20
55329;DHT22;41205;44.264;19.884;2023-05-10T06:35:57;691.40;1433.60
55329;DHT22;41205;44.264;19.884;2023-05-10T06:38:23;716.90;1408.00
55329;DHT22;41205;44.264;19.884;2023-05-10T06:40:49;743.00;1331.20
55329;DHT22;41205;44.264;19.884;2023-05-10T06:45:41;845.20;1203.20
55329;DHT22;41205;44.264;19.884;2023-05-10T06:48:07;922.40;1075.20
55329;DHT22;41205;44.264;19.884;2023-05-10T06:50:33;922.00;1126.40
55329;DHT22;41205;44.264;19.884;2023-05-10T06:55:25;972.90;1049.60
55329;DHT22;41205;44.264;19.884;2023-05-10T06:57:50;1024.00;998.40
55329;DHT22;41205;44.264;19.884;2023-05-10T07:00:17;1049.60;972.80
55329;DHT22;41205;44.264;19.884;2023-05-10T07:02:43;973.30;1024.00
55329;DHT22;41205;44.264;19.884;2023-05-10T07:05:09;973.50;1024.00
55329;DHT22;41205;44.264;19.884;2023-05-10T07:07:35;948.00;1024.00
55329;DHT22;41205;44.264;19.884;2023-05-10T07:10:01;973.70;998.40
55329;DHT22;41205;44.264;19.884;2023-05-10T07:12:27;1024.40;972.80
55329;DHT22;41205;44.264;19.884;2023-05-10T07:14:52;922.00;1075.20
55329;DHT22;41205;44.264;19.884;2023-05-10T07:17:18;998.50;998.40
55329;DHT22;41205;44.264;19.884;2023-05-10T07:19:44;870.80;1126.40
55329;DHT22;41205;44.264;19.884;2023-05-10T07:22:09;896.80;1075.20
55329;DHT22;41205;44.264;19.884;2023-05-10T07:24:35;921.90;1100.80
55329;DHT22;41205;44.264;19.884;2023-05-10T07:27:01;948.10;1024.00
55329;DHT22;41205;44.264;19.884;2023-05-10T07:29:27;947.40;1075.20
55329;DHT22;41205;44.264;19.884;2023-05-10T07:31:54;973.50;1024.00
55329;DHT22;41205;44.264;19.884;2023-05-10T07:34:20;973.20;1049.60
55329;DHT22;41205;44.264;19.884;2023-05-10T07:36:45;972.90;1049.60
55329;DHT22;41205;44.264;19.884;2023-05-10T07:39:11;998.70;1024.00
55329;DHT22;41205;44.264;19.884;2023-05-10T07:41:37;896.90;1075.20
55329;DHT22;41205;44.264;19.884;2023-05-10T07:44:04;871.30;1126.40
55329;DHT22;41205;44.264;19.884;2023-05-10T07:46:30;820.00;1203.20
55329;DHT22;41205;44.264;19.884;2023-05-10T07:48:56;768.60;1254.40
55329;DHT22;41205;44.264;19.884;2023-05-10T07:51:22;742.90;1331.20
55329;DHT22;41205;44.264;19.884;2023-05-10T07:56:43;820.10;1177.60
55329;DHT22;41205;44.264;19.884;2023-05-10T07:59:16;844.90;1203.20
55329;DHT22;41205;44.264;19.884;2023-05-10T08:01:42;922.50;1049.60
55329;DHT22;41205;44.264;19.884;2023-05-10T08:04:08;871.30;1152.00
55329;DHT22;41205;44.264;19.884;2023-05-10T08:06:34;845.50;1203.20
55329;DHT22;41205;44.264;19.884;2023-05-10T08:09:00;768.90;1228.80
55329;DHT22;41205;44.264;19.884;2023-05-10T08:11:26;742.80;1331.20
55329;DHT22;41205;44.264;19.884;2023-05-10T08:13:53;717.30;1331.20
55329;DHT22;41205;44.264;19.884;2023-05-10T08:16:20;691.70;1356.80
55329;DHT22;41205;44.264;19.884;2023-05-10T08:18:46;691.20;1408.00
55329;DHT22;41205;44.264;19.884;2023-05-10T08:23:39;691.90;1382.40
55329;DHT22;41205;44.264;19.884;2023-05-10T08:26:05;691.50;1382.40
55329;DHT22;41205;44.264;19.884;2023-05-10T08:28:31;666.20;1433.60
55329;DHT22;41205;44.264;19.884;2023-05-10T08:30:57;665.80;1484.80
55329;DHT22;41205;44.264;19.884;2023-05-10T08:33:22;665.70;1510.40
55329;DHT22;41205;44.264;19.884;2023-05-10T08:35:48;640.90;1484.80
55329;DHT22;41205;44.264;19.884;2023-05-10T08:38:14;640.90;1484.80
55329;DHT22;41205;44.264;19.884;2023-05-10T08:40:43;665.80;1536.00
55329;DHT22;41205;44.264;19.884;2023-05-10T08:43:11;666.00;1484.80
55329;DHT22;41205;44.264;19.884;2023-05-10T08:45:39;666.40;1484.80
55329;DHT22;41205;44.264;19.884;2023-05-10T08:48:09;665.80;1459.20
55329;DHT22;41205;44.264;19.884;2023-05-10T08:50:40;640.30;1510.40
55329;DHT22;41205;44.264;19.884;2023-05-10T08:53:09;640.60;1536.00
55329;DHT22;41205;44.264;19.884;2023-05-10T08:55:36;640.60;1536.00
55329;DHT22;41205;44.264;19.884;2023-05-10T08:58:04;640.60;1484.80
55329;DHT22;41205;44.264;19.884;2023-05-10T09:00:30;640.50;1510.40
55329;DHT22;41205;44.264;19.884;2023-05-10T09:02:58;640.10;1536.00
55329;DHT22;41205;44.264;19.884;2023-05-10T09:05:24;615.30;1561.60
55329;DHT22;41205;44.264;19.884;2023-05-10T09:07:49;614.90;1561.60
55329;DHT22;41205;44.264;19.884;2023-05-10T09:10:16;614.90;1612.80
55329;DHT22;41205;44.264;19.884;2023-05-10T09:12:43;640.00;1561.60
55329;DHT22;41205;44.264;19.884;2023-05-10T09:15:09;640.30;1561.60
55329;DHT22;41205;44.264;19.884;2023-05-10T09:17:36;640.00;1561.60
55329;DHT22;41205;44.264;19.884;2023-05-10T09:20:03;614.80;1587.20
55329;DHT22;41205;44.264;19.884;2023-05-10T09:22:35;614.40;1612.80
55329;DHT22;41205;44.264;19.884;2023-05-10T09:27:34;614.80;1612.80
55329;DHT22;41205;44.264;19.884;2023-05-10T09:29:59;614.60;1612.80
55329;DHT22;41205;44.264;19.884;2023-05-10T09:32:45;589.70;1612.80
55329;DHT22;41205;44.264;19.884;2023-05-10T09:35:13;589.40;1689.60
55329;DHT22;41205;44.264;19.884;2023-05-10T09:37:40;589.00;1715.20
55329;DHT22;41205;44.264;19.884;2023-05-10T09:40:15;588.90;1740.80
55329;DHT22;41205;44.264;19.884;2023-05-10T09:43:07;563.50;1792.00
55329;DHT22;41205;44.264;19.884;2023-05-10T09:45:34;563.70;1766.40
55329;DHT22;41205;44.264;19.884;2023-05-10T09:48:02;564.10;1740.80
55329;DHT22;41205;44.264;19.884;2023-05-10T09:50:28;589.00;1740.80
55329;DHT22;41205;44.264;19.884;2023-05-10T09:53:00;588.90;1740.80
55329;DHT22;41205;44.264;19.884;2023-05-10T09:58:04;564.00;1766.40
55329;DHT22;41205;44.264;19.884;2023-05-10T10:00:36;564.10;1740.80
55329;DHT22;41205;44.264;19.884;2023-05-10T10:03:02;563.60;1766.40
55329;DHT22;41205;44.264;19.884;2023-05-10T10:05:33;563.90;1792.00
55329;DHT22;41205;44.264;19.884;2023-05-10T10:08:00;563.60;1792.00
55329;DHT22;41205;44.264;19.884;2023-05-10T10:10:27;563.50;1792.00
55329;DHT22;41205;44.264;19.884;2023-05-10T10:12:54;563.70;1792.00
55329;DHT22;41205;44.264;19.884;2023-05-10T10:15:23;588.80;1766.40
55329;DHT22;41205;44.264;19.884;2023-05-10T10:17:50;563.70;1792.00
55329;DHT22;41205;44.264;19.884;2023-05-10T10:20:18;564.00;1792.00
55329;DHT22;41205;44.264;19.884;2023-05-10T10:22:44;588.80;1792.00
55329;DHT22;41205;44.264;19.884;2023-05-10T10:25:15;563.90;1766.40
55329;DHT22;41205;44.264;19.884;2023-05-10T10:30:43;563.50;1817.60
55329;DHT22;41205;44.264;19.884;2023-05-10T10:36:00;564.10;1792.00
55329;DHT22;41205;44.264;19.884;2023-05-10T10:38:25;563.70;1792.00
55329;DHT22;41205;44.264;19.884;2023-05-10T10:41:11;563.70;1792.00
55329;DHT22;41205;44.264;19.884;2023-05-10T10:49:24;563.30;1843.20
55329;DHT22;41205;44.264;19.884;2023-05-10T10:52:28;563.60;1817.60
55329;DHT22;41205;44.264;19.884;2023-05-10T10:55:12;538.00;1868.80
55329;DHT22;41205;44.264;19.884;2023-05-10T10:57:48;538.20;1843.20
55329;DHT22;41205;44.264;19.884;2023-05-10T11:00:31;538.30;1843.20
55329;DHT22;41205;44.264;19.884;2023-05-10T11:03:03;538.40;1868.80
55329;DHT22;41205;44.264;19.884;2023-05-10T11:05:48;538.50;1868.80
55329;DHT22;41205;44.264;19.884;2023-05-10T11:08:31;538.00;1868.80
55329;DHT22;41205;44.264;19.884;2023-05-10T11:16:22;537.70;1920.00
55329;DHT22;41205;44.264;19.884;2023-05-10T11:21:28;537.90;1945.60
55329;DHT22;41205;44.264;19.884;2023-05-10T11:23:55;537.80;1920.00
55329;DHT22;41205;44.264;19.884;2023-05-10T11:26:25;538.20;1894.40
55329;DHT22;41205;44.264;19.884;2023-05-10T11:28:55;538.30;1920.00
55329;DHT22;41205;44.264;19.884;2023-05-10T11:31:21;537.80;1894.40
55329;DHT22;41205;44.264;19.884;2023-05-10T11:33:49;512.80;1920.00
55329;DHT22;41205;44.264;19.884;2023-05-10T11:36:20;537.80;1920.00
55329;DHT22;41205;44.264;19.884;2023-05-10T11:38:46;537.80;1920.00
55329;DHT22;41205;44.264;19.884;2023-05-10T11:41:13;538.10;1868.80
55329;DHT22;41205;44.264;19.884;2023-05-10T11:43:39;538.00;1894.40
55329;DHT22;41205;44.264;19.884;2023-05-10T11:46:11;537.80;1920.00
55329;DHT22;41205;44.264;19.884;2023-05-10T11:48:38;512.50;1894.40
55329;DHT22;41205;44.264;19.884;2023-05-10T11:51:04;512.60;1894.40
55329;DHT22;41205;44.264;19.884;2023-05-10T11:53:32;512.70;1894.40
55329;DHT22;41205;44.264;19.884;2023-05-10T11:58:31;537.70;1920.00
55329;DHT22;41205;44.264;19.884;2023-05-10T12:00:58;537.80;1920.00
55329;DHT22;41205;44.264;19.884;2023-05-10T12:03:24;538.00;1894.40
55329;DHT22;41205;44.264;19.884;2023-05-10T12:05:50;538.00;1894.40
55329;DHT22;41205;44.264;19.884;2023-05-10T12:08:21;538.00;1894.40
55329;DHT22;41205;44.264;19.884;2023-05-10T12:10:47;538.20;1894.40
55329;DHT22;41205;44.264;19.884;2023-05-10T12:13:13;538.10;1868.80
55329;DHT22;41205;44.264;19.884;2023-05-10T12:15:39;538.00;1868.80
55329;DHT22;41205;44.264;19.884;2023-05-10T12:18:05;538.30;1868.80
55329;DHT22;41205;44.264;19.884;2023-05-10T12:20:33;538.30;1868.80
55329;DHT22;41205;44.264;19.884;2023-05-10T12:22:59;538.10;1868.80
55329;DHT22;41205;44.264;19.884;2023-05-10T12:25:34;538.00;1843.20
55329;DHT22;41205;44.264;19.884;2023-05-10T12:28:03;538.20;1868.80
55329;DHT22;41205;44.264;19.884;2023-05-10T12:30:32;538.10;1868.80
55329;DHT22;41205;44.264;19.884;2023-05-10T12:33:11;538.20;1868.80
55329;DHT22;41205;44.264;19.884;2023-05-10T12:35:49;538.00;1843.20
55329;DHT22;41205;44.264;19.884;2023-05-10T12:38:34;537.90;1894.40
55329;DHT22;41205;44.264;19.884;2023-05-10T12:41:08;538.20;1868.80
55329;DHT22;41205;44.264;19.884;2023-05-10T12:43:35;538.10;1843.20
55329;DHT22;41205;44.264;19.884;2023-05-10T12:46:07;538.10;1868.80
55329;DHT22;41205;44.264;19.884;2023-05-10T12:48:34;537.90;1868.80
55329;DHT22;41205;44.264;19.884;2023-05-10T12:51:01;538.10;1868.80
55329;DHT22;41205;44.264;19.884;2023-05-10T12:53:27;538.00;1843.20
55329;DHT22;41205;44.264;19.884;2023-05-10T12:55:53;538.10;1868.80
55329;DHT22;41205;44.264;19.884;2023-05-10T12:58:19;538.00;1843.20
55329;DHT22;41205;44.264;19.884;2023-05-10T13:00:45;538.20;1843.20
55329;DHT22;41205;44.264;19.884;2023-05-10T13:03:11;538.10;1868.80
55329;DHT22;41205;44.264;19.884;2023-05-10T13:05:37;538.20;1843.20
55329;DHT22;41205;44.264;19.884;2023-05-10T13:08:03;537.90;1894.40
55329;DHT22;41205;44.264;19.884;2023-05-10T13:10:30;537.90;1868.80
55329;DHT22;41205;44.264;19.884;2023-05-10T13:12:56;538.00;1868.80
55329;DHT22;41205;44.264;19.884;2023-05-10T13:15:22;538.00;1894.40
55329;DHT22;41205;44.264;19.884;2023-05-10T13:17:47;538.10;1868.80
55329;DHT22;41205;44.264;19.884;2023-05-10T13:20:13;538.00;1868.80
55329;DHT22;41205;44.264;19.884;2023-05-10T13:22:40;538.00;1894.40
55329;DHT22;41205;44.264;19.884;2023-05-10T13:25:06;538.30;1868.80
55329;DHT22;41205;44.264;19.884;2023-05-10T13:27:32;538.20;1868.80
55329;DHT22;41205;44.264;19.884;2023-05-10T13:29:57;537.90;1894.40
55329;DHT22;41205;44.264;19.884;2023-05-10T13:32:25;537.70;1894.40
55329;DHT22;41205;44.264;19.884;2023-05-10T13:34:51;537.90;1894.40
55329;DHT22;41205;44.264;19.884;2023-05-10T13:37:17;537.90;1894.40
55329;DHT22;41205;44.264;19.884;2023-05-10T13:39:42;537.70;1894.40
55329;DHT22;41205;44.264;19.884;2023-05-10T13:42:08;537.90;1868.80
55329;DHT22;41205;44.264;19.884;2023-05-10T13:44:34;538.00;1843.20
55329;DHT22;41205;44.264;19.884;2023-05-10T13:47:00;512.90;1868.80
55329;DHT22;41205;44.264;19.884;2023-05-10T13:49:26;537.70;1894.40
55329;DHT22;41205;44.264;19.884;2023-05-10T13:51:52;537.90;1894.40
55329;DHT22;41205;44.264;19.884;2023-05-10T13:54:17;537.70;1843.20
55329;DHT22;41205;44.264;19.884;2023-05-10T13:56:45;537.70;1868.80
55329;DHT22;41205;44.264;19.884;2023-05-10T13:59:13;512.90;1868.80
55329;DHT22;41205;44.264;19.884;2023-05-10T14:01:42;537.70;1868.80
55329;DHT22;41205;44.264;19.884;2023-05-10T14:04:09;537.60;1868.80
55329;DHT22;41205;44.264;19.884;2023-05-10T14:06:38;537.60;1894.40
55329;DHT22;41205;44.264;19.884;2023-05-10T14:09:04;537.90;1868.80
55329;DHT22;41205;44.264;19.884;2023-05-10T14:11:30;537.70;1894.40
55329;DHT22;41205;44.264;19.884;2023-05-10T14:13:55;537.90;1894.40
55329;DHT22;41205;44.264;19.884;2023-05-10T14:16:21;512.70;1894.40
55329;DHT22;41205;44.264;19.884;2023-05-10T14:18:47;512.90;1894.40
55329;DHT22;41205;44.264;19.884;2023-05-10T14:21:13;537.60;1894.40
55329;DHT22;41205;44.264;19.884;2023-05-10T14:23:39;537.60;1920.00
55329;DHT22;41205;44.264;19.884;2023-05-10T14:26:05;537.60;1920.00
55329;DHT22;41205;44.264;19.884;2023-05-10T14:28:30;537.70;1920.00
55329;DHT22;41205;44.264;19.884;2023-05-10T14:30:56;537.70;1920.00
55329;DHT22;41205;44.264;19.884;2023-05-10T14:33:22;537.70;1920.00
55329;DHT22;41205;44.264;19.884;2023-05-10T14:35:48;512.70;1920.00
55329;DHT22;41205;44.264;19.884;2023-05-10T14:38:14;512.90;1920.00
55329;DHT22;41205;44.264;19.884;2023-05-10T14:40:40;512.90;1894.40
55329;DHT22;41205;44.264;19.884;2023-05-10T14:43:05;512.80;1920.00
55329;DHT22;41205;44.264;19.884;2023-05-10T14:45:31;512.70;1920.00
55329;DHT22;41205;44.264;19.884;2023-05-10T14:47:57;512.70;1920.00
55329;DHT22;41205;44.264;19.884;2023-05-10T14:50:23;512.70;1920.00
55329;DHT22;41205;44.264;19.884;2023-05-10T14:52:49;512.80;1920.00
55329;DHT22;41205;44.264;19.884;2023-05-10T14:55:15;512.90;1920.00
55329;DHT22;41205;44.264;19.884;2023-05-10T14:57:41;512.70;1920.00
55329;DHT22;41205;44.264;19.884;2023-05-10T15:00:07;512.80;1920.00
55329;DHT22;41205;44.264;19.884;2023-05-10T15:02:33;512.90;1945.60
55329;DHT22;41205;44.264;19.884;2023-05-10T15:04:59;512.80;1920.00
55329;DHT22;41205;44.264;19.884;2023-05-10T15:07:24;512.80;1920.00
55329;DHT22;41205;44.264;19.884;2023-05-10T15:09:51;512.40;1945.60
55329;DHT22;41205;44.264;19.884;2023-05-10T15:12:20;512.40;1945.60
55329;DHT22;41205;44.264;19.884;2023-05-10T15:14:46;512.40;1971.20
55329;DHT22;41205;44.264;19.884;2023-05-10T15:17:12;512.10;1996.80
55329;DHT22;41205;44.264;19.884;2023-05-10T15:19:37;512.20;1971.20
55329;DHT22;41205;44.264;19.884;2023-05-10T15:22:04;512.00;1996.80
55329;DHT22;41205;44.264;19.884;2023-05-10T15:24:31;487.30;1996.80
55329;DHT22;41205;44.264;19.884;2023-05-10T15:26:57;487.30;1996.80
55329;DHT22;41205;44.264;19.884;2023-05-10T15:29:22;487.10;1996.80
55329;DHT22;41205;44.264;19.884;2023-05-10T15:31:49;487.10;2022.40